Fryburg, North Dakota
Current Conditions -  °F | °C
As of 10:56 AM on Friday 19 Dec 2014 (Local Time) from KDIK Reporting Station
Clear Clear  
Wind Chill: 31°   Ceiling: Unl
Heat Index: 38°   Visibility: 10mi
Dew Point: 27°   Wind: 9mph
Humidity: 65%   Direction: 280°W
Pressure: 29.9"   Gusts: NA
Location:  46.8731°N, 103.138°W
Report Text: KDIK 191756Z AUTO 28008KT 10SM CLR 03/M03 A2990 RMK AO2 SLP147 T00331028 10033 21022 58001
Loading
Personal Weather Stations






























Interactive Weather Map New forecast layout! Learn more

10-Day Weather Forecast

Advertisements
Track Severe Weather on mobile